Time;durP1;ratioP1;P1;durP2;ratioP2;P2;SDS_P1;SDS_P2;PMS_P1;PMS_P2;Temp;Humidity;BMP_temperature;BMP_pressure;BME280_temperature;BME280_humidity;BME280_pressure;Samples;Min_cycle;Max_cycle;Signal;HPM_P1;HPM_P2
2023/12/21 00:01:04;;;;;;;6.30;5.70;;;;;;;18.34;33.48;98339.79;104377;1260;69316;-64
2023/12/21 00:03:32;;;;;;;7.60;6.50;;;;;;;18.29;33.51;98344.05;104398;1254;71877;-64
2023/12/21 00:06:00;;;;;;;8.50;6.40;;;;;;;18.26;33.74;98348.27;104836;1257;60692;-64
2023/12/21 00:08:30;;;;;;;6.80;6.10;;;;;;;18.21;33.80;98351.18;104324;1259;60766;-64
2023/12/21 00:10:58;;;;;;;6.90;5.90;;;;;;;18.22;33.79;98351.09;104620;1268;73621;-64
2023/12/21 00:13:26;;;;;;;;;;;;;;;18.23;33.99;98348.86;104643;1253;70142;-64
2023/12/21 00:15:54;;;;;;;6.60;5.80;;;;;;;18.46;34.00;98348.61;104314;1258;73437;-63
2023/12/21 00:18:21;;;;;;;6.50;5.50;;;;;;;18.67;33.60;98348.70;104382;1259;60160;-63
2023/12/21 00:20:49;;;;;;;;;;;;;;;18.64;33.63;98347.78;104391;1257;60791;-63
2023/12/21 00:23:18;;;;;;;5.10;4.30;;;;;;;18.69;33.83;98351.92;104533;1254;74070;-60
2023/12/21 00:25:46;;;;;;;4.80;4.40;;;;;;;18.70;33.88;98350.20;104397;1258;69391;-64
2023/12/21 00:28:14;;;;;;;4.60;4.20;;;;;;;18.84;33.66;98349.92;104670;1259;73029;-65
2023/12/21 00:30:42;;;;;;;;;;;;;;;18.88;33.82;98351.32;104721;1256;61629;-64
2023/12/21 00:33:10;;;;;;;;;;;;;;;18.99;33.61;98349.75;104742;1252;60413;-65
2023/12/21 00:35:38;;;;;;;3.70;3.30;;;;;;;19.14;33.49;98348.64;104548;1255;74207;-64
2023/12/21 00:38:05;;;;;;;5.30;3.80;;;;;;;19.00;33.52;98348.40;104628;1275;69103;-65
2023/12/21 00:40:33;;;;;;;;;;;;;;;19.03;33.56;98338.34;104527;1266;72294;-64
2023/12/21 00:43:00;;;;;;;;;;;;;;;19.29;33.41;98343.89;104696;1257;61672;-64
2023/12/21 00:45:29;;;;;;;;;;;;;;;19.41;33.15;98342.58;105359;1257;60620;-64
2023/12/21 00:47:58;;;;;;;2.70;2.50;;;;;;;19.67;32.85;98339.11;104765;1253;73782;-64
2023/12/21 00:50:26;;;;;;;3.00;2.70;;;;;;;19.54;32.89;98334.63;104639;1258;69420;-64
2023/12/21 00:52:53;;;;;;;2.90;2.70;;;;;;;19.33;33.22;98329.20;104595;1256;72539;-64
2023/12/21 00:55:21;;;;;;;3.00;2.80;;;;;;;19.64;32.91;98332.21;104751;1257;60663;-64
2023/12/21 00:57:49;;;;;;;2.80;2.50;;;;;;;19.82;32.69;98330.30;104611;1253;60557;-65
2023/12/21 01:00:17;;;;;;;2.90;2.70;;;;;;;19.84;32.63;98332.35;104381;1267;74511;-65
2023/12/21 01:02:45;;;;;;;2.60;2.40;;;;;;;19.75;32.57;98329.88;104502;1271;68175;-65
2023/12/21 01:05:12;;;;;;;2.80;2.60;;;;;;;19.64;32.78;98326.52;104620;1256;72889;-66
2023/12/21 01:07:41;;;;;;;2.50;2.30;;;;;;;19.74;32.60;98322.72;104686;1254;61827;-66
2023/12/21 01:10:09;;;;;;;3.40;2.50;;;;;;;19.40;33.00;98327.72;104700;1256;59350;-67
2023/12/21 01:12:37;;;;;;;2.30;2.10;;;;;;;19.19;33.38;98326.86;104583;1259;74522;-64
2023/12/21 01:15:07;;;;;;;;;;;;;;;19.55;32.88;98321.84;104465;1257;68173;-64
2023/12/21 01:17:34;;;;;;;2.50;2.30;;;;;;;19.46;33.05;98320.41;104371;1259;73508;-65
2023/12/21 01:20:02;;;;;;;2.60;2.40;;;;;;;19.54;32.80;98320.16;104430;1257;60701;-65
2023/12/21 01:22:30;;;;;;;;;;;;;;;19.26;32.98;98319.70;104512;1253;60460;-65
2023/12/21 01:24:58;;;;;;;2.40;2.20;;;;;;;19.10;33.42;98320.76;104760;1260;74542;-65
2023/12/21 01:27:26;;;;;;;;;;;;;;;19.08;33.27;98332.20;104723;1265;70053;-66
2023/12/21 01:29:59;;;;;;;2.30;2.10;;;;;;;19.09;33.40;98330.16;104640;1260;73367;-66
2023/12/21 01:32:27;;;;;;;1.90;1.80;;;;;;;19.15;33.24;98331.65;104662;1256;61526;-65
2023/12/21 01:34:55;;;;;;;2.30;2.10;;;;;;;19.03;33.37;98333.21;104561;1256;60563;-64
2023/12/21 01:37:22;;;;;;;1.80;1.70;;;;;;;19.20;33.22;98330.21;108372;1252;74093;-65
2023/12/21 01:39:50;;;;;;;;;;;;;;;19.34;32.89;98330.61;108369;1253;69084;-66
2023/12/21 01:42:18;;;;;;;1.90;1.80;;;;;;;19.45;32.90;98332.52;108461;1253;72548;-66
2023/12/21 01:44:45;;;;;;;2.10;1.90;;;;;;;19.66;32.50;98330.47;108385;1253;60644;-65
2023/12/21 01:47:13;;;;;;;2.60;2.20;;;;;;;19.32;33.04;98336.31;108336;1252;60209;-65
2023/12/21 01:49:43;;;;;;;2.20;2.00;;;;;;;19.21;33.14;98339.08;108326;1256;74098;-66
2023/12/21 01:52:10;;;;;;;3.20;2.20;;;;;;;19.10;33.31;98341.59;108463;1253;68346;-65
2023/12/21 01:54:38;;;;;;;1.80;1.70;;;;;;;19.43;32.96;98338.64;108342;1253;72352;-62
2023/12/21 01:57:06;;;;;;;2.60;2.40;;;;;;;19.64;32.51;98336.84;108368;1253;60946;-65
2023/12/21 01:59:33;;;;;;;2.10;2.00;;;;;;;19.61;32.57;98334.87;108422;1256;60326;-64
2023/12/21 02:02:04;;;;;;;2.40;2.10;;;;;;;19.31;32.77;98339.11;108544;1251;73100;-65
2023/12/21 02:04:32;;;;;;;2.00;1.80;;;;;;;19.52;32.72;98335.61;108344;1253;69413;-65
2023/12/21 02:07:00;;;;;;;;;;;;;;;19.66;32.61;98331.21;108365;1253;72937;-65
2023/12/21 02:09:27;;;;;;;1.80;1.70;;;;;;;19.61;32.52;98320.83;108417;1253;60652;-64
2023/12/21 02:11:55;;;;;;;2.20;2.00;;;;;;;19.53;32.67;98314.39;108410;1253;59703;-66
2023/12/21 02:14:23;;;;;;;2.20;2.10;;;;;;;19.59;32.49;98310.91;108400;1252;74510;-66
2023/12/21 02:16:56;;;;;;;2.20;2.10;;;;;;;19.77;32.12;98309.63;108490;1253;69125;-66
2023/12/21 02:19:24;;;;;;;2.40;2.10;;;;;;;19.68;32.08;98311.05;108400;1253;72543;-66
2023/12/21 02:21:53;;;;;;;;;;;;;;;19.83;32.23;98314.38;108395;1254;60598;-66
2023/12/21 02:24:21;;;;;;;1.80;1.70;;;;;;;19.97;32.08;98308.98;108324;1253;58936;-66
2023/12/21 02:26:51;;;;;;;2.90;2.20;;;;;;;19.99;31.66;98306.46;108371;1253;72711;-65
2023/12/21 02:29:19;;;;;;;2.30;1.80;;;;;;;19.94;31.85;98312.50;108363;1252;69615;-66
2023/12/21 02:31:46;;;;;;;2.00;1.80;;;;;;;19.93;31.72;98321.56;108376;1253;73346;-66
2023/12/21 02:34:14;;;;;;;2.20;1.90;;;;;;;20.25;31.50;98317.74;108376;1252;61154;-66
2023/12/21 02:36:42;;;;;;;2.40;1.80;;;;;;;20.21;31.47;98323.65;108415;1254;59723;-64
2023/12/21 02:39:09;;;;;;;2.70;2.10;;;;;;;20.04;31.49;98322.70;108379;1252;73513;-64
2023/12/21 02:41:37;;;;;;;2.00;1.80;;;;;;;19.93;31.30;98314.90;108370;1253;70195;-65
2023/12/21 02:44:04;;;;;;;;;;;;;;;19.75;31.51;98315.02;108381;1254;72383;-68
2023/12/21 02:46:32;;;;;;;2.10;1.90;;;;;;;19.59;31.30;98312.11;108363;1252;61048;-64
2023/12/21 02:49:01;;;;;;;1.80;1.70;;;;;;;19.69;31.47;98311.35;108304;1252;59681;-63
2023/12/21 02:51:29;;;;;;;1.80;1.70;;;;;;;19.76;31.48;98314.84;108513;1255;73658;-64
2023/12/21 02:53:58;;;;;;;1.80;1.70;;;;;;;19.85;31.17;98311.83;108365;1252;69589;-64
2023/12/21 02:56:25;;;;;;;1.50;1.40;;;;;;;19.84;31.19;98312.88;108326;1254;72355;-64
2023/12/21 02:58:53;;;;;;;2.10;1.80;;;;;;;19.85;30.73;98314.13;108359;1253;60637;-63
2023/12/21 03:01:20;;;;;;;2.00;1.80;;;;;;;19.90;30.32;98316.84;108321;1254;60521;-64
2023/12/21 03:03:48;;;;;;;2.60;1.80;;;;;;;19.98;30.36;98308.40;108407;1253;72739;-63
2023/12/21 03:06:16;;;;;;;2.40;1.80;;;;;;;20.13;30.33;98311.79;108347;1252;69335;-64
2023/12/21 03:08:44;;;;;;;1.80;1.60;;;;;;;19.99;30.45;98310.40;108283;1253;73314;-64
2023/12/21 03:11:12;;;;;;;2.20;2.00;;;;;;;19.83;30.40;98308.36;108384;1252;61188;-64
2023/12/21 03:13:40;;;;;;;1.50;1.40;;;;;;;19.47;30.72;98304.15;108576;1254;60714;-64
2023/12/21 03:16:09;;;;;;;2.90;2.10;;;;;;;19.37;30.99;98302.09;108340;1252;72629;-64
2023/12/21 03:18:37;;;;;;;2.40;1.70;;;;;;;19.40;31.01;98296.27;108382;1255;69625;-64
2023/12/21 03:21:04;;;;;;;;;;;;;;;19.61;30.61;98293.80;108332;1254;72824;-60
2023/12/21 03:23:34;;;;;;;;;;;;;;;19.42;30.76;98293.62;108445;1254;59192;-64
2023/12/21 03:26:02;;;;;;;1.70;1.50;;;;;;;19.50;30.50;98292.29;108420;1256;60428;-64
2023/12/21 03:28:29;;;;;;;1.60;1.50;;;;;;;19.69;30.29;98288.89;108387;1254;73556;-65
2023/12/21 03:30:57;;;;;;;2.20;1.90;;;;;;;19.63;30.37;98287.95;108367;1252;69157;-65
2023/12/21 03:33:25;;;;;;;;;;;;;;;19.58;30.27;98289.35;108414;1253;73391;-65
2023/12/21 03:35:52;;;;;;;;;;;;;;;19.67;30.12;98285.77;108491;1252;59195;-65
2023/12/21 03:38:20;;;;;;;1.80;1.30;;;;;;;19.66;30.11;98291.52;108446;1251;59830;-65
2023/12/21 03:40:48;;;;;;;3.50;1.90;;;;;;;19.74;30.12;98292.15;108397;1252;73663;-64
2023/12/21 03:43:16;;;;;;;2.20;1.80;;;;;;;19.70;30.05;98292.06;108469;1251;70094;-65
2023/12/21 03:45:44;;;;;;;1.80;1.40;;;;;;;19.76;30.06;98291.09;108355;1254;72898;-65
2023/12/21 03:48:11;;;;;;;2.40;1.80;;;;;;;19.93;29.69;98292.39;108377;1252;60085;-65
2023/12/21 03:50:39;;;;;;;2.40;1.80;;;;;;;19.93;29.67;98297.35;108292;1252;59674;-65
2023/12/21 03:53:07;;;;;;;2.20;1.90;;;;;;;19.93;29.63;98297.34;108363;1253;72910;-65
2023/12/21 03:55:37;;;;;;;2.50;1.80;;;;;;;19.92;29.66;98296.23;108417;1253;69896;-65
2023/12/21 03:58:05;;;;;;;2.30;2.10;;;;;;;19.70;29.74;98294.33;108350;1257;72481;-66
2023/12/21 04:00:32;;;;;;;1.80;1.70;;;;;;;19.71;29.90;98291.71;108386;1253;59995;-63
2023/12/21 04:03:03;;;;;;;2.40;1.90;;;;;;;19.72;29.87;98292.52;108345;1251;59696;-63
2023/12/21 04:05:31;;;;;;;3.20;2.00;;;;;;;19.66;29.81;98298.13;108400;1251;74096;-64
2023/12/21 04:07:59;;;;;;;;;;;;;;;19.58;29.90;98298.54;108360;1253;69311;-62
2023/12/21 04:10:27;;;;;;;3.10;2.60;;;;;;;19.59;29.88;98301.79;108405;1253;72457;-63
2023/12/21 04:12:55;;;;;;;2.50;2.30;;;;;;;19.32;30.14;98301.48;108424;1252;59046;-63
2023/12/21 04:15:23;;;;;;;;;;;;;;;19.28;30.31;98302.45;108389;1252;59815;-63
2023/12/21 04:17:51;;;;;;;3.20;2.60;;;;;;;19.11;30.43;98302.19;108448;1253;73659;-64
2023/12/21 04:20:19;;;;;;;4.00;2.80;;;;;;;19.00;30.57;98300.23;108364;1252;69170;-63
2023/12/21 04:22:47;;;;;;;3.00;2.50;;;;;;;18.98;30.53;98302.04;108405;1253;72710;-63
2023/12/21 04:25:15;;;;;;;3.10;2.80;;;;;;;19.03;30.51;98302.06;108428;1253;59069;-63
2023/12/21 04:27:43;;;;;;;3.10;2.80;;;;;;;18.99;30.54;98302.52;108368;1253;60130;-63
2023/12/21 04:30:12;;;;;;;4.00;3.70;;;;;;;19.03;30.60;98301.79;108513;1253;73697;-65
2023/12/21 04:32:40;;;;;;;4.00;3.20;;;;;;;18.93;30.59;98304.91;108338;1254;68169;-66
2023/12/21 04:35:08;;;;;;;3.80;3.50;;;;;;;18.83;30.61;98301.08;108325;1252;72360;-66
2023/12/21 04:37:36;;;;;;;3.80;3.40;;;;;;;18.63;30.84;98307.96;108452;1253;59605;-66
2023/12/21 04:40:04;;;;;;;3.50;3.10;;;;;;;18.55;30.99;98309.27;108376;1253;58789;-63
2023/12/21 04:42:32;;;;;;;4.50;3.90;;;;;;;18.64;30.85;98310.17;108346;1254;72719;-60
2023/12/21 04:45:00;;;;;;;4.70;3.50;;;;;;;18.53;30.86;98308.70;108313;1252;69214;-61
2023/12/21 04:47:28;;;;;;;3.60;3.30;;;;;;;18.52;31.06;98308.86;108458;1254;72315;-60
2023/12/21 04:49:56;;;;;;;3.80;3.50;;;;;;;18.55;30.84;98309.38;108269;1253;58509;-59
2023/12/21 04:52:23;;;;;;;;;;;;;;;18.64;30.82;98309.21;108482;1252;59659;-59
2023/12/21 04:54:51;;;;;;;4.20;3.30;;;;;;;18.73;30.64;98307.55;108353;1252;73405;-60
2023/12/21 04:57:19;;;;;;;;;;;;;;;18.56;30.75;98309.80;108453;1252;69060;-60
2023/12/21 04:59:48;;;;;;;3.50;3.20;;;;;;;18.51;30.82;98309.12;108456;1252;72325;-60
2023/12/21 05:02:16;;;;;;;3.60;3.30;;;;;;;18.48;30.99;98311.29;108187;1252;59371;-61
2023/12/21 05:04:44;;;;;;;3.40;3.10;;;;;;;18.51;30.73;98307.89;108374;1254;60674;-60
2023/12/21 05:07:11;;;;;;;4.10;3.10;;;;;;;18.41;31.05;98310.38;108335;1253;72359;-59
2023/12/21 05:09:39;;;;;;;6.10;3.10;;;;;;;18.56;30.95;98313.42;108424;1251;68052;-61
2023/12/21 05:12:07;;;;;;;3.30;3.00;;;;;;;18.50;30.93;98311.17;108345;1253;71975;-61
2023/12/21 05:14:35;;;;;;;3.90;3.40;;;;;;;18.70;30.79;98310.65;108340;1252;58598;-61
2023/12/21 05:17:03;;;;;;;3.50;3.20;;;;;;;18.57;30.72;98314.20;108389;1252;60671;-61
2023/12/21 05:19:35;;;;;;;4.80;3.70;;;;;;;18.46;30.90;98314.95;108144;1254;74735;-61
2023/12/21 05:22:03;;;;;;;4.60;3.80;;;;;;;18.39;31.00;98315.56;108304;1252;68696;-62
2023/12/21 05:24:31;;;;;;;5.10;3.80;;;;;;;18.04;31.43;98316.23;108413;1252;71512;-61
2023/12/21 05:26:59;;;;;;;4.30;3.90;;;;;;;18.00;31.55;98320.22;108180;1253;61689;-62
2023/12/21 05:29:27;;;;;;;5.70;4.00;;;;;;;18.15;31.36;98316.27;108179;1253;60357;-62
2023/12/21 05:31:55;;;;;;;4.80;3.80;;;;;;;18.14;31.40;98316.50;108356;1252;73901;-60
2023/12/21 05:34:24;;;;;;;5.70;3.40;;;;;;;17.96;31.50;98318.59;108113;1253;70286;-62
2023/12/21 05:36:52;;;;;;;5.20;3.40;;;;;;;17.69;31.82;98320.73;108260;1252;73379;-64
2023/12/21 05:39:20;;;;;;;5.00;3.70;;;;;;;17.94;31.51;98322.00;108269;1252;60345;-64
2023/12/21 05:41:49;;;;;;;4.70;3.90;;;;;;;17.88;31.72;98320.75;108389;1252;62262;-64
2023/12/21 05:44:17;;;;;;;3.60;3.30;;;;;;;17.97;31.48;98319.27;108026;1254;74871;-63
2023/12/21 05:46:46;;;;;;;4.90;3.50;;;;;;;18.00;31.57;98321.20;108298;1254;69561;-64
2023/12/21 05:52:32;;;;;;;5.00;4.40;;;;;;;17.84;31.69;98320.56;101868;1288;615130;-67
2023/12/21 05:54:59;;;;;;;5.00;4.20;;;;;;;17.89;31.67;98317.80;103894;1273;61352;-65
2023/12/21 05:57:27;;;;;;;4.20;3.70;;;;;;;17.91;31.70;98321.84;103765;1266;59740;-64
2023/12/21 05:59:54;;;;;;;6.80;4.20;;;;;;;17.91;31.58;98324.02;103518;1267;71228;-64
2023/12/21 06:02:21;;;;;;;4.70;4.30;;;;;;;17.92;31.55;98321.98;103684;1266;69524;-66
2023/12/21 06:04:47;;;;;;;4.10;3.70;;;;;;;17.77;31.54;98324.55;103860;1266;149454;-65
2023/12/21 06:07:16;;;;;;;5.80;4.40;;;;;;;17.74;31.54;98324.14;104031;1264;60773;-67
2023/12/21 06:09:43;;;;;;;5.30;4.30;;;;;;;17.58;31.80;98321.07;103742;1272;60323;-67
2023/12/21 06:12:09;;;;;;;5.30;4.60;;;;;;;17.43;31.94;98322.30;104171;1266;71812;-65
2023/12/21 06:14:36;;;;;;;8.20;4.80;;;;;;;17.39;32.12;98324.89;104412;1266;68387;-66
2023/12/21 06:17:04;;;;;;;5.60;4.60;;;;;;;17.33;32.21;98328.48;103617;1288;73183;-65
2023/12/21 06:19:34;;;;;;;4.80;4.30;;;;;;;17.25;32.34;98325.54;104233;1269;61172;-66
2023/12/21 06:22:02;;;;;;;5.60;4.60;;;;;;;17.25;32.42;98328.34;104330;1263;59836;-65
2023/12/21 06:24:30;;;;;;;6.00;4.20;;;;;;;17.20;32.59;98324.14;104861;1266;73753;-66
2023/12/21 06:26:57;;;;;;;5.70;4.80;;;;;;;17.21;32.55;98322.52;105452;1269;69242;-67
2023/12/21 06:29:29;;;;;;;7.60;5.20;;;;;;;17.16;32.77;98322.02;106536;1267;72713;-66
2023/12/21 06:31:56;;;;;;;8.20;5.20;;;;;;;17.28;32.58;98325.73;107745;1257;60789;-65
2023/12/21 06:34:25;;;;;;;6.80;5.50;;;;;;;17.28;32.64;98330.36;104833;1262;60408;-65
2023/12/21 06:36:52;;;;;;;5.50;4.90;;;;;;;17.22;32.67;98335.86;104217;1261;73532;-69
2023/12/21 06:39:20;;;;;;;8.60;5.20;;;;;;;17.15;32.88;98340.89;104758;1258;71320;-60
2023/12/21 06:41:47;;;;;;;11.90;9.10;;;;;;;17.22;32.88;98342.60;104505;1262;72272;-60
2023/12/21 06:44:14;;;;;;;9.20;8.10;;;;;;;17.16;33.05;98341.36;104265;1257;62201;-61
2023/12/21 06:46:42;;;;;;;8.80;6.70;;;;;;;17.05;33.19;98340.70;104329;1256;59992;-60
2023/12/21 06:49:11;;;;;;;7.20;6.40;;;;;;;17.23;32.97;98337.34;104707;1255;72794;-61
2023/12/21 06:51:38;;;;;;;7.80;7.00;;;;;;;17.48;32.77;98337.25;105719;1257;69954;-61
2023/12/21 06:54:06;;;;;;;8.10;7.10;;;;;;;17.45;32.83;98339.23;106020;1259;72376;-61
2023/12/21 06:56:33;;;;;;;7.80;6.90;;;;;;;17.33;33.08;98342.15;104632;1258;61534;-60
2023/12/21 06:59:03;;;;;;;6.70;5.70;;;;;;;16.98;33.57;98347.40;104920;1259;60132;-61
2023/12/21 07:01:30;;;;;;;7.00;6.30;;;;;;;17.20;33.45;98345.75;104644;1259;72508;-61
2023/12/21 07:03:57;;;;;;;7.60;6.40;;;;;;;17.29;33.38;98344.04;104513;1273;69124;-60
2023/12/21 07:06:27;;;;;;;8.80;7.20;;;;;;;17.21;33.57;98347.31;104698;1259;72070;-60
2023/12/21 07:08:55;;;;;;;10.70;7.40;;;;;;;17.47;33.19;98350.03;104065;1278;60422;-61
2023/12/21 07:11:24;;;;;;;8.20;7.20;;;;;;;17.37;33.42;98349.23;104357;1257;60000;-60
2023/12/21 07:13:51;;;;;;;8.70;7.80;;;;;;;17.40;33.21;98345.53;104040;1263;73457;-61
2023/12/21 07:16:18;;;;;;;11.30;8.70;;;;;;;17.58;33.12;98349.70;104435;1257;69100;-60
2023/12/21 07:18:45;;;;;;;9.50;7.70;;;;;;;17.37;33.54;98345.48;104459;1261;72266;-61
2023/12/21 07:21:13;;;;;;;10.70;8.90;;;;;;;17.26;33.59;98341.64;104792;1262;61298;-67
2023/12/21 07:23:40;;;;;;;9.60;7.60;;;;;;;17.25;33.73;98341.42;107942;1256;59881;-67
2023/12/21 07:26:09;;;;;;;8.00;7.20;;;;;;;17.42;33.74;98343.08;105610;1260;73014;-66
2023/12/21 07:28:36;;;;;;;8.40;7.20;;;;;;;17.61;33.60;98345.59;104521;1259;69946;-67
2023/12/21 07:31:03;;;;;;;7.90;7.10;;;;;;;17.54;33.72;98349.94;105280;1257;71781;-66
2023/12/21 07:33:31;;;;;;;8.10;7.30;;;;;;;17.23;34.17;98352.04;105114;1259;60943;-62
2023/12/21 07:35:58;;;;;;;8.80;7.30;;;;;;;17.21;34.27;98355.95;105972;1257;60375;-61
2023/12/21 07:38:25;;;;;;;8.50;7.70;;;;;;;17.14;34.39;98354.13;104468;1257;72816;-62
2023/12/21 07:40:52;;;;;;;8.70;7.20;;;;;;;17.25;34.18;98356.11;104339;1261;69140;-61
2023/12/21 07:43:19;;;;;;;8.60;7.80;;;;;;;17.35;34.15;98357.92;104240;1275;72918;-62
2023/12/21 07:45:47;;;;;;;9.80;8.20;;;;;;;17.09;34.42;98359.48;104543;1273;60753;-61
2023/12/21 07:48:14;;;;;;;9.80;8.80;;;;;;;16.91;34.74;98358.06;104333;1256;60072;-63
2023/12/21 07:50:41;;;;;;;10.40;9.40;;;;;;;16.98;34.86;98356.73;104268;1260;73329;-61
2023/12/21 07:53:08;;;;;;;8.60;7.60;;;;;;;17.27;34.40;98358.45;104388;1259;70071;-61
2023/12/21 07:55:35;;;;;;;10.20;8.60;;;;;;;17.20;34.47;98354.59;104423;1259;73120;-61
2023/12/21 07:59:42;;;;;;;11.70;8.30;;;;;;;16.87;36.67;98353.55;101163;1296;601217;-60
2023/12/21 08:02:10;;;;;;;10.30;9.00;;;;;;;18.51;32.84;98344.16;103564;1279;60992;-64
2023/12/21 08:04:37;;;;;;;10.30;8.10;;;;;;;18.18;33.15;98345.73;103593;1267;59864;-60
2023/12/21 08:07:05;;;;;;;;;;;;;;;18.12;33.34;98344.19;103473;1268;72972;-60
2023/12/21 08:09:33;;;;;;;10.90;8.80;;;;;;;18.09;33.37;98337.73;103804;1271;71544;-60
2023/12/21 08:12:01;;;;;;;9.80;8.90;;;;;;;17.86;33.58;98342.58;103449;1268;72515;-61
2023/12/21 08:14:31;;;;;;;;;;;;;;;17.75;33.88;98335.97;103478;1271;153278;-60
2023/12/21 08:17:02;;;;;;;10.20;9.30;;;;;;;17.84;33.89;98334.23;103859;1263;59678;-61
2023/12/21 08:19:31;;;;;;;9.90;8.80;;;;;;;18.02;33.57;98336.07;103499;1271;72167;-61
2023/12/21 08:22:00;;;;;;;10.50;9.50;;;;;;;18.04;33.56;98331.34;103626;1278;69629;-61
2023/12/21 08:24:28;;;;;;;11.60;9.60;;;;;;;17.80;33.73;98327.36;103881;1266;72574;-60
2023/12/21 08:26:56;;;;;;;11.80;9.60;;;;;;;17.65;33.86;98326.61;103614;1266;61321;-61
2023/12/21 08:29:23;;;;;;;;;;;;;;;17.82;33.90;98321.86;104041;1265;60087;-61
2023/12/21 08:31:51;;;;;;;10.30;9.10;;;;;;;17.94;33.82;98318.29;103780;1264;72793;-61
2023/12/21 08:34:22;;;;;;;11.10;10.00;;;;;;;17.92;33.91;98312.59;103641;1270;69127;-62
2023/12/21 08:36:50;;;;;;;10.90;9.30;;;;;;;17.85;33.99;98308.45;104287;1268;72507;-61
2023/12/21 08:39:20;;;;;;;12.60;9.60;;;;;;;17.62;34.20;98301.52;103508;1265;60977;-60
2023/12/21 08:41:47;;;;;;;12.10;10.10;;;;;;;17.64;34.10;98298.70;103625;1270;60114;-61
2023/12/21 08:44:15;;;;;;;11.50;10.20;;;;;;;17.72;33.94;98295.13;103862;1281;72888;-61
2023/12/21 08:46:43;;;;;;;16.90;9.50;;;;;;;17.72;33.98;98292.24;104111;1266;72601;-61
2023/12/21 08:49:15;;;;;;;11.50;10.10;;;;;;;17.84;33.91;98289.41;103846;1265;72940;-61
2023/12/21 08:51:43;;;;;;;14.60;10.90;;;;;;;18.05;33.65;98285.13;103864;1265;61587;-61
2023/12/21 08:54:11;;;;;;;14.60;10.00;;;;;;;18.05;33.62;98280.10;103795;1271;61989;-68
2023/12/21 08:56:44;;;;;;;13.00;11.20;;;;;;;17.80;34.03;98283.75;103871;1265;72910;-69
2023/12/21 08:59:12;;;;;;;11.50;10.20;;;;;;;17.66;34.21;98285.06;104101;1275;69575;-68
2023/12/21 09:01:40;;;;;;;13.80;10.00;;;;;;;17.56;34.31;98281.52;104237;1264;72246;-67
2023/12/21 09:04:08;;;;;;;;;;;;;;;17.42;34.61;98278.54;104396;1258;60776;-61
2023/12/21 09:06:36;;;;;;;12.80;10.20;;;;;;;17.33;34.93;98271.62;104117;1259;61070;-61
2023/12/21 09:09:04;;;;;;;12.10;9.50;;;;;;;17.69;34.58;98273.95;104585;1257;73495;-61
2023/12/21 09:11:31;;;;;;;;;;;;;;;17.79;34.49;98271.42;104553;1259;69742;-61
2023/12/21 09:14:00;;;;;;;11.60;9.80;;;;;;;17.96;34.37;98260.06;104657;1253;73662;-60
2023/12/21 09:16:28;;;;;;;12.10;9.70;;;;;;;17.93;34.43;98257.91;104753;1255;60731;-61
2023/12/21 09:18:56;;;;;;;;;;;;;;;17.79;34.60;98259.05;104744;1253;60253;-61
2023/12/21 09:21:24;;;;;;;9.10;7.90;;;;;;;17.87;34.61;98255.80;104804;1254;73699;-62
2023/12/21 09:23:52;;;;;;;9.50;8.30;;;;;;;18.31;34.09;98241.86;104962;1255;68215;-61
2023/12/21 09:26:20;;;;;;;10.60;8.60;;;;;;;18.33;34.04;98236.54;104682;1265;71657;-61
2023/12/21 09:28:49;;;;;;;11.20;8.70;;;;;;;18.17;34.35;98235.06;104655;1256;59929;-60
2023/12/21 09:31:17;;;;;;;9.60;8.10;;;;;;;18.14;34.36;98235.66;105053;1253;59663;-60
2023/12/21 09:33:45;;;;;;;9.20;7.80;;;;;;;18.20;34.22;98232.30;104837;1254;73498;-64
2023/12/21 09:36:14;;;;;;;;;;;;;;;18.28;34.08;98231.30;104456;1267;70205;-66
2023/12/21 09:38:42;;;;;;;9.40;6.80;;;;;;;18.33;34.01;98231.05;104836;1254;71400;-61
2023/12/21 09:41:10;;;;;;;8.90;6.50;;;;;;;18.37;33.43;98234.52;104726;1270;60844;-63
2023/12/21 09:43:38;;;;;;;8.40;6.20;;;;;;;18.42;33.32;98236.90;104670;1256;60921;-62
2023/12/21 09:46:05;;;;;;;8.00;6.00;;;;;;;18.55;33.25;98232.26;105236;1254;73217;-62
2023/12/21 09:48:33;;;;;;;6.80;5.80;;;;;;;18.66;33.07;98228.48;105047;1255;69860;-62
2023/12/21 09:51:05;;;;;;;7.20;5.70;;;;;;;18.51;33.20;98230.64;104611;1253;72463;-61
2023/12/21 09:53:33;;;;;;;6.20;5.60;;;;;;;18.25;33.21;98227.30;104492;1265;60716;-62
2023/12/21 09:56:01;;;;;;;5.70;5.00;;;;;;;18.36;33.18;98219.88;104660;1253;59831;-61
2023/12/21 09:58:29;;;;;;;10.30;5.90;;;;;;;18.41;33.32;98219.77;104470;1257;73112;-62
2023/12/21 10:00:57;;;;;;;6.10;5.20;;;;;;;18.57;33.04;98215.94;104753;1259;68279;-62
2023/12/21 10:03:26;;;;;;;5.70;5.10;;;;;;;19.00;32.32;98209.37;104586;1254;72526;-61
2023/12/21 10:05:54;;;;;;;5.50;4.80;;;;;;;19.03;32.14;98203.67;104685;1257;60867;-62
2023/12/21 10:08:22;;;;;;;6.40;5.30;;;;;;;19.19;31.89;98201.63;104611;1267;59979;-62
2023/12/21 10:10:50;;;;;;;8.00;5.10;;;;;;;19.29;31.50;98195.37;104488;1253;72979;-62
2023/12/21 10:13:17;;;;;;;8.30;5.30;;;;;;;19.21;31.66;98191.95;104356;1257;69103;-63
2023/12/21 10:15:46;;;;;;;7.30;5.50;;;;;;;19.26;31.73;98191.81;104388;1254;72594;-62
2023/12/21 10:18:19;;;;;;;6.80;5.00;;;;;;;19.08;32.00;98191.66;104561;1255;60677;-63
2023/12/21 10:20:47;;;;;;;7.30;5.90;;;;;;;19.08;32.15;98190.59;104702;1254;59748;-62
2023/12/21 10:23:14;;;;;;;6.80;5.70;;;;;;;19.23;32.07;98186.46;104487;1271;73733;-64
2023/12/21 10:25:44;;;;;;;;;;;;;;;19.14;32.18;98184.37;104709;1253;69611;-64
2023/12/21 10:28:12;;;;;;;9.00;5.70;;;;;;;19.00;31.95;98183.22;104336;1253;72309;-62
2023/12/21 10:30:40;;;;;;;;;;;;;;;18.82;32.29;98182.74;104634;1257;59782;-63
2023/12/21 10:33:09;;;;;;;;;;;;;;;18.70;32.24;98180.90;104589;1253;59814;-64
2023/12/21 10:35:37;;;;;;;6.40;5.20;;;;;;;18.18;32.92;98186.03;108226;1253;72805;-64
2023/12/21 10:38:05;;;;;;;7.00;5.40;;;;;;;18.31;32.92;98190.23;106089;1252;68530;-63
2023/12/21 10:40:33;;;;;;;;;;;;;;;18.52;32.72;98189.39;104961;1255;72479;-63
2023/12/21 10:43:01;;;;;;;7.60;5.30;;;;;;;18.26;32.89;98180.08;104387;1257;60928;-62
2023/12/21 10:45:29;;;;;;;6.90;5.30;;;;;;;18.31;32.97;98184.91;104477;1265;59331;-63
2023/12/21 10:48:07;;;;;;;5.50;4.70;;;;;;;18.45;32.92;98180.16;105113;1255;72328;-62
2023/12/21 10:50:36;;;;;;;4.90;4.00;;;;;;;18.27;33.03;98174.16;104383;1259;69353;-62
2023/12/21 10:53:05;;;;;;;7.80;5.30;;;;;;;18.28;32.96;98178.83;104611;1256;71909;-63
2023/12/21 10:55:32;;;;;;;;;;;;;;;18.31;32.96;98174.02;104390;1253;60965;-63
2023/12/21 10:58:00;;;;;;;6.40;5.40;;;;;;;18.37;32.95;98168.51;104760;1257;60094;-62
2023/12/21 11:00:28;;;;;;;6.30;5.00;;;;;;;18.77;32.62;98162.12;104477;1254;72873;-62
2023/12/21 11:02:56;;;;;;;7.10;5.00;;;;;;;18.99;32.45;98154.05;104740;1257;69219;-62
2023/12/21 11:05:24;;;;;;;;;;;;;;;19.02;32.36;98155.56;104539;1257;71940;-63
2023/12/21 11:07:54;;;;;;;6.40;5.00;;;;;;;19.06;32.15;98150.39;104480;1261;61014;-62
2023/12/21 11:10:22;;;;;;;6.30;5.10;;;;;;;19.01;32.11;98147.23;104454;1258;62276;-62
2023/12/21 11:12:50;;;;;;;6.80;5.50;;;;;;;18.94;32.21;98140.94;104515;1274;75862;-62
2023/12/21 11:15:21;;;;;;;6.00;5.40;;;;;;;18.94;32.30;98135.70;104634;1253;68533;-62
2023/12/21 11:17:58;;;;;;;6.20;5.60;;;;;;;18.78;32.52;98128.64;104867;1252;75337;-68
2023/12/21 11:20:32;;;;;;;6.80;5.80;;;;;;;19.27;31.92;98124.89;105339;1257;59816;-68
2023/12/21 11:23:13;;;;;;;7.60;5.40;;;;;;;19.29;31.94;98121.92;104905;1256;59847;-69
2023/12/21 11:25:41;;;;;;;7.50;6.00;;;;;;;19.39;31.89;98118.77;104658;1252;72959;-67
2023/12/21 11:28:09;;;;;;;7.30;5.20;;;;;;;19.50;31.89;98118.06;105181;1254;69590;-70
2023/12/21 11:30:37;;;;;;;;;;;;;;;19.46;31.88;98115.52;104962;1255;72880;-68
2023/12/21 11:33:08;;;;;;;;;;;;;;;19.33;32.01;98113.48;104348;1258;60844;-66
2023/12/21 11:35:36;;;;;;;6.90;6.10;;;;;;;19.18;32.27;98118.09;104851;1255;60823;-65
2023/12/21 11:38:05;;;;;;;6.70;4.80;;;;;;;19.28;32.25;98114.88;104612;1252;72911;-68
2023/12/21 11:40:35;;;;;;;8.00;5.40;;;;;;;18.88;32.69;98116.23;104833;1258;69059;-67